Time;durP1;ratioP1;P1;durP2;ratioP2;P2;SDS_P1;SDS_P2;PMS_P1;PMS_P2;Temp;Humidity;BMP_temperature;BMP_pressure;BME280_temperature;BME280_humidity;BME280_pressure;Samples;Min_cycle;Max_cycle;Signal;HPM_P1;HPM_P2
2023/07/17 00:00:28;;;;;;;;;2.00;2.00;;;;;;;;5052160;28;8843;-84
2023/07/17 00:02:56;;;;;;;;;3.00;3.00;;;;;;;;5068403;28;8837;-84
2023/07/17 00:05:23;;;;;;;;;2.00;2.00;;;;;;;;5072665;28;8996;-84
2023/07/17 00:07:50;;;;;;;;;5.00;5.00;;;;;;;;5055939;28;8870;-84
2023/07/17 00:10:17;;;;;;;;;2.50;2.25;;;;;;;;5073065;28;9615;-83
2023/07/17 00:12:45;;;;;;;;;2.50;2.50;;;;;;;;5073009;28;8856;-84
2023/07/17 00:15:12;;;;;;;;;4.00;4.00;;;;;;;;5058490;28;9656;-84
2023/07/17 00:17:41;;;;;;;;;2.25;2.25;;;;;;;;5073197;28;8880;-81
2023/07/17 00:20:11;;;;;;;;;3.50;3.00;;;;;;;;5072841;28;9012;-84
2023/07/17 00:22:39;;;;;;;;;2.25;2.25;;;;;;;;5074318;28;8965;-84
2023/07/17 00:25:07;;;;;;;;;2.75;2.75;;;;;;;;5063694;28;8962;-85
2023/07/17 00:27:35;;;;;;;;;4.25;4.25;;;;;;;;5069811;28;8844;-86
2023/07/17 00:30:03;;;;;;;;;3.50;3.50;;;;;;;;5067180;28;8856;-82
2023/07/17 00:32:30;;;;;;;;;4.00;4.00;;;;;;;;5073165;28;8861;-85
2023/07/17 00:34:59;;;;;;;;;2.50;2.50;;;;;;;;5071367;28;8848;-84
2023/07/17 00:37:26;;;;;;;;;2.75;2.75;;;;;;;;5072360;28;8857;-85
2023/07/17 00:39:54;;;;;;;;;3.00;3.00;;;;;;;;5058403;28;8851;-85
2023/07/17 00:42:21;;;;;;;;;3.75;3.75;;;;;;;;5052167;28;8851;-84
2023/07/17 00:44:48;;;;;;;;;3.75;3.75;;;;;;;;5052834;28;8881;-85
2023/07/17 00:47:15;;;;;;;;;8.25;5.00;;;;;;;;5053239;28;8847;-86
2023/07/17 00:49:43;;;;;;;;;4.00;4.00;;;;;;;;5055701;28;8879;-86
2023/07/17 00:52:12;;;;;;;;;5.00;5.00;;;;;;;;5067048;28;8998;-87
2023/07/17 00:54:41;;;;;;;;;3.00;3.00;;;;;;;;5062105;28;8858;-86
2023/07/17 00:57:09;;;;;;;;;4.00;4.00;;;;;;;;5054488;28;8868;-88
2023/07/17 00:59:37;;;;;;;;;4.75;4.00;;;;;;;;5055927;28;8986;-86
2023/07/17 01:02:04;;;;;;;;;5.00;4.00;;;;;;;;5056224;28;8942;-86
2023/07/17 01:04:32;;;;;;;;;2.50;2.50;;;;;;;;5056239;28;8993;-85
2023/07/17 01:06:59;;;;;;;;;5.00;4.00;;;;;;;;5072707;28;8966;-86
2023/07/17 01:09:31;;;;;;;;;4.00;4.00;;;;;;;;5060250;28;8833;-84
2023/07/17 01:11:58;;;;;;;;;4.75;4.75;;;;;;;;5064539;28;8851;-84
2023/07/17 01:14:25;;;;;;;;;1.50;1.50;;;;;;;;5052307;28;8933;-85
2023/07/17 01:16:52;;;;;;;;;3.50;3.50;;;;;;;;5051708;28;8877;-87
2023/07/17 01:19:20;;;;;;;;;5.00;3.00;;;;;;;;5050915;28;8879;-84
2023/07/17 01:21:51;;;;;;;;;5.00;4.00;;;;;;;;5063338;28;8828;-87
2023/07/17 01:24:21;;;;;;;;;4.25;4.25;;;;;;;;5060907;28;8877;-85
2023/07/17 01:26:48;;;;;;;;;5.25;3.75;;;;;;;;5067341;28;8882;-83
2023/07/17 01:29:16;;;;;;;;;3.25;3.25;;;;;;;;5074186;28;9645;-85
2023/07/17 01:31:43;;;;;;;;;2.00;1.50;;;;;;;;5055479;28;8787;-86
2023/07/17 01:34:11;;;;;;;;;3.00;3.00;;;;;;;;5060767;28;9602;-85
2023/07/17 01:36:38;;;;;;;;;2.75;2.75;;;;;;;;5051144;28;8875;-83
2023/07/17 01:39:05;;;;;;;;;3.00;3.00;;;;;;;;5053337;28;8855;-84
2023/07/17 01:41:34;;;;;;;;;4.75;4.75;;;;;;;;5064556;28;8926;-85
2023/07/17 01:44:01;;;;;;;;;4.00;4.00;;;;;;;;5070929;28;8874;-86
2023/07/17 01:46:29;;;;;;;;;2.00;2.00;;;;;;;;5052993;28;8997;-84
2023/07/17 01:48:59;;;;;;;;;5.25;4.75;;;;;;;;5057126;28;8971;-85
2023/07/17 01:51:29;;;;;;;;;3.00;3.00;;;;;;;;5071183;28;8852;-86
2023/07/17 01:53:57;;;;;;;;;4.75;3.75;;;;;;;;5070400;28;9747;-82
2023/07/17 01:56:24;;;;;;;;;3.00;3.00;;;;;;;;5059294;28;8835;-81
2023/07/17 01:58:53;;;;;;;;;4.00;4.00;;;;;;;;5056803;28;8828;-83
2023/07/17 02:01:21;;;;;;;;;5.00;3.75;;;;;;;;5071747;28;8777;-81
2023/07/17 02:03:48;;;;;;;;;4.00;4.00;;;;;;;;5073769;28;8863;-83
2023/07/17 02:06:17;;;;;;;;;4.00;4.00;;;;;;;;5074481;28;8864;-85
2023/07/17 02:08:44;;;;;;;;;3.75;3.00;;;;;;;;5074799;28;8998;-81
2023/07/17 02:11:12;;;;;;;;;5.75;4.25;;;;;;;;5070600;28;8829;-82
2023/07/17 02:13:39;;;;;;;;;5.00;5.00;;;;;;;;5067581;28;8807;-85
2023/07/17 02:16:08;;;;;;;;;4.00;4.00;;;;;;;;5050465;28;8851;-86
2023/07/17 02:18:35;;;;;;;;;3.75;3.00;;;;;;;;5050528;28;8859;-82
2023/07/17 02:21:04;;;;;;;;;3.00;3.00;;;;;;;;5051221;28;8866;-84
2023/07/17 02:23:31;;;;;;;;;3.75;3.75;;;;;;;;5050435;28;8985;-85
2023/07/17 02:25:58;;;;;;;;;5.67;5.67;;;;;;;;5058314;28;8951;-87
2023/07/17 02:28:26;;;;;;;;;3.00;3.00;;;;;;;;5071077;28;8931;-88
2023/07/17 02:30:53;;;;;;;;;4.00;4.00;;;;;;;;5070185;28;8821;-88
2023/07/17 02:33:22;;;;;;;;;4.00;4.00;;;;;;;;5067206;28;9031;-87
2023/07/17 02:35:49;;;;;;;;;3.00;3.00;;;;;;;;5072289;28;9027;-87
2023/07/17 02:38:16;;;;;;;;;4.50;3.00;;;;;;;;5073980;28;8880;-87
2023/07/17 02:40:43;;;;;;;;;4.00;3.00;;;;;;;;5074102;28;8841;-87
2023/07/17 02:43:11;;;;;;;;;3.33;3.33;;;;;;;;5074852;28;8868;-84
2023/07/17 02:45:38;;;;;;;;;3.67;3.67;;;;;;;;5073388;28;9069;-84
2023/07/17 02:48:06;;;;;;;;;3.67;3.67;;;;;;;;5066179;28;9004;-82
2023/07/17 02:50:34;;;;;;;;;5.67;4.33;;;;;;;;5066784;28;9156;-81
2023/07/17 02:53:02;;;;;;;;;3.00;3.00;;;;;;;;5069956;28;9205;-84
2023/07/17 02:55:29;;;;;;;;;2.33;2.33;;;;;;;;5064162;28;8999;-86
2023/07/17 02:57:57;;;;;;;;;3.33;3.33;;;;;;;;5049884;28;9231;-83
2023/07/17 03:00:25;;;;;;;;;3.67;3.67;;;;;;;;5049990;28;9096;-86
2023/07/17 03:02:52;;;;;;;;;2.00;2.00;;;;;;;;5056418;28;9309;-85
2023/07/17 03:05:19;;;;;;;;;3.00;3.00;;;;;;;;5070220;28;9279;-89
2023/07/17 03:07:49;;;;;;;;;3.00;3.00;;;;;;;;5069390;28;9021;-86
2023/07/17 03:10:16;;;;;;;;;2.00;2.00;;;;;;;;5056316;28;9172;-84
2023/07/17 03:12:43;;;;;;;;;3.00;3.00;;;;;;;;5058282;28;9070;-88
2023/07/17 03:15:11;;;;;;;;;2.00;2.00;;;;;;;;5055008;28;9242;-87
2023/07/17 03:17:38;;;;;;;;;3.33;3.33;;;;;;;;5051258;28;8942;-89
2023/07/17 03:20:08;;;;;;;;;3.00;3.00;;;;;;;;5050041;28;9335;-89
2023/07/17 03:22:36;;;;;;;;;4.00;4.00;;;;;;;;5066175;28;9169;-87
2023/07/17 03:25:06;;;;;;;;;3.00;3.00;;;;;;;;5072004;28;9080;-85
2023/07/17 03:27:33;;;;;;;;;3.33;3.33;;;;;;;;5057843;28;9087;-79
2023/07/17 03:30:00;;;;;;;;;4.00;4.00;;;;;;;;5064938;28;9443;-82
2023/07/17 03:32:32;;;;;;;;;2.00;2.00;;;;;;;;5069967;28;9235;-82
2023/07/17 03:34:59;;;;;;;;;3.00;3.00;;;;;;;;5063104;28;9250;-83
2023/07/17 03:37:27;;;;;;;;;5.00;5.00;;;;;;;;5050584;28;9357;-83
2023/07/17 03:39:54;;;;;;;;;4.00;4.00;;;;;;;;5050699;28;9180;-84
2023/07/17 03:42:23;;;;;;;;;2.33;2.33;;;;;;;;5050281;28;9337;-87
2023/07/17 03:44:50;;;;;;;;;1.67;1.67;;;;;;;;5068752;28;9251;-85
2023/07/17 03:47:17;;;;;;;;;3.00;3.00;;;;;;;;5072646;28;9328;-87
2023/07/17 03:49:44;;;;;;;;;2.00;2.00;;;;;;;;5073417;28;9196;-87
2023/07/17 03:52:11;;;;;;;;;2.00;2.00;;;;;;;;5071012;28;9271;-84
2023/07/17 03:54:39;;;;;;;;;3.00;3.00;;;;;;;;5053032;28;9176;-87
2023/07/17 03:57:06;;;;;;;;;3.00;2.00;;;;;;;;5068142;28;9312;-89
2023/07/17 03:59:48;;;;;;;;;5.00;3.00;;;;;;;;5061616;28;9218;-88
2023/07/17 04:02:16;;;;;;;;;3.67;3.67;;;;;;;;5078136;28;9079;-90
2023/07/17 04:04:43;;;;;;;;;2.00;2.00;;;;;;;;5077063;28;9378;-88
2023/07/17 04:07:11;;;;;;;;;2.67;2.67;;;;;;;;5070447;28;9261;-88
2023/07/17 04:09:38;;;;;;;;;3.33;3.00;;;;;;;;5068075;28;9259;-88
2023/07/17 04:12:06;;;;;;;;;5.00;3.33;;;;;;;;5070730;28;9221;-87
2023/07/17 04:14:35;;;;;;;;;3.00;3.00;;;;;;;;5074258;28;9231;-87
2023/07/17 04:17:03;;;;;;;;;3.00;3.00;;;;;;;;5075880;28;9194;-82
2023/07/17 04:19:31;;;;;;;;;3.00;3.00;;;;;;;;5074900;28;9201;-90
2023/07/17 04:21:58;;;;;;;;;2.00;2.00;;;;;;;;5075865;28;9227;-88
2023/07/17 04:24:26;;;;;;;;;3.00;3.00;;;;;;;;5072998;28;9201;-90
2023/07/17 04:26:54;;;;;;;;;2.00;2.00;;;;;;;;5072167;28;9273;-86
2023/07/17 04:29:22;;;;;;;;;3.00;3.00;;;;;;;;5072298;28;9275;-84
2023/07/17 04:31:50;;;;;;;;;2.33;2.33;;;;;;;;5070993;28;9276;-85
2023/07/17 04:34:18;;;;;;;;;5.67;4.00;;;;;;;;5071589;28;9180;-85
2023/07/17 04:36:46;;;;;;;;;5.67;4.00;;;;;;;;5070557;28;9522;-81
2023/07/17 04:39:13;;;;;;;;;3.67;3.67;;;;;;;;5072496;28;9331;-87
2023/07/17 04:41:41;;;;;;;;;2.67;2.67;;;;;;;;5072537;28;9264;-82
2023/07/17 04:44:08;;;;;;;;;3.67;3.67;;;;;;;;5071875;28;9175;-88
2023/07/17 04:46:35;;;;;;;;;2.33;2.33;;;;;;;;5071976;28;9527;-89
2023/07/17 04:49:04;;;;;;;;;2.00;2.00;;;;;;;;5072057;28;9363;-85
2023/07/17 04:51:31;;;;;;;;;3.67;3.67;;;;;;;;5072211;28;9284;-89
2023/07/17 04:54:02;;;;;;;;;3.67;3.67;;;;;;;;5070480;28;9253;-88
2023/07/17 04:56:31;;;;;;;;;4.00;4.00;;;;;;;;5071168;28;9320;-88
2023/07/17 04:58:59;;;;;;;;;3.67;3.67;;;;;;;;5071414;28;9255;-87
2023/07/17 05:01:26;;;;;;;;;3.33;3.33;;;;;;;;5071405;28;9181;-90
2023/07/17 05:03:53;;;;;;;;;5.67;4.00;;;;;;;;5071217;28;9093;-90
2023/07/17 05:06:21;;;;;;;;;2.33;2.00;;;;;;;;5071226;28;9121;-92
2023/07/17 05:08:49;;;;;;;;;5.33;4.00;;;;;;;;5071764;28;9119;-90
2023/07/17 05:11:16;;;;;;;;;3.33;3.33;;;;;;;;5072623;28;9084;-82
2023/07/17 05:13:43;;;;;;;;;5.33;2.00;;;;;;;;5069596;28;9178;-78
2023/07/17 05:16:10;;;;;;;;;4.00;4.00;;;;;;;;5054939;28;8967;-91
2023/07/17 05:18:38;;;;;;;;;7.25;6.00;;;;;;;;5058989;28;8973;-92
2023/07/17 05:21:05;;;;;;;;;3.75;3.75;;;;;;;;5056542;28;8870;-75
2023/07/17 05:23:33;;;;;;;;;3.75;3.75;;;;;;;;5054897;28;8997;-89
2023/07/17 05:26:03;;;;;;;;;4.25;4.25;;;;;;;;5051495;28;8896;-84
2023/07/17 05:28:30;;;;;;;;;5.25;3.50;;;;;;;;5051835;28;8869;-87
2023/07/17 05:31:01;;;;;;;;;3.00;3.00;;;;;;;;5050570;28;8791;-90
2023/07/17 05:33:30;;;;;;;;;4.00;3.25;;;;;;;;5050793;28;8831;-91
2023/07/17 05:35:58;;;;;;;;;4.25;4.25;;;;;;;;5050426;28;8847;-91
2023/07/17 05:38:25;;;;;;;;;3.50;3.50;;;;;;;;5051169;28;8878;-94
2023/07/17 05:41:00;;;;;;;;;5.00;3.00;;;;;;;;5050919;28;9625;-92
2023/07/17 05:43:30;;;;;;;;;4.75;4.75;;;;;;;;5051280;28;8851;-91
2023/07/17 05:46:01;;;;;;;;;3.75;3.75;;;;;;;;5051766;28;8851;-93
2023/07/17 05:48:30;;;;;;;;;5.50;5.50;;;;;;;;5053043;28;8847;-88
2023/07/17 05:51:00;;;;;;;;;3.75;3.75;;;;;;;;5053781;28;8883;-90
2023/07/17 05:53:30;;;;;;;;;5.00;5.00;;;;;;;;5054453;28;8854;-93
2023/07/17 05:56:01;;;;;;;;;5.00;4.00;;;;;;;;5057019;28;8878;-93
2023/07/17 05:58:29;;;;;;;;;3.00;3.00;;;;;;;;5057166;28;8985;-88
2023/07/17 06:00:57;;;;;;;;;5.00;5.00;;;;;;;;5054384;28;8810;-89
2023/07/17 06:03:25;;;;;;;;;5.00;5.00;;;;;;;;5051391;28;8851;-83
2023/07/17 06:05:53;;;;;;;;;4.00;3.75;;;;;;;;5049990;28;9072;-92
2023/07/17 06:08:20;;;;;;;;;3.75;3.75;;;;;;;;5050149;28;8869;-80
2023/07/17 06:10:47;;;;;;;;;5.50;4.25;;;;;;;;5049673;28;8859;-91
2023/07/17 06:13:16;;;;;;;;;5.00;5.00;;;;;;;;5049838;28;8897;-84
2023/07/17 06:15:44;;;;;;;;;5.00;5.00;;;;;;;;5069712;28;8840;-86
2023/07/17 06:18:11;;;;;;;;;5.00;5.00;;;;;;;;5069701;28;8840;-77
2023/07/17 06:20:38;;;;;;;;;4.50;4.50;;;;;;;;5069398;28;9820;-72
2023/07/17 06:23:06;;;;;;;;;5.75;3.75;;;;;;;;5069875;28;8844;-84
2023/07/17 06:25:34;;;;;;;;;4.75;4.75;;;;;;;;5069623;28;8999;-79
2023/07/17 06:28:01;;;;;;;;;4.00;4.00;;;;;;;;5069802;28;8856;-82
2023/07/17 06:30:30;;;;;;;;;3.25;3.25;;;;;;;;5069633;28;8894;-81
2023/07/17 06:32:57;;;;;;;;;4.00;2.75;;;;;;;;5070000;28;8862;-84
2023/07/17 06:35:25;;;;;;;;;3.75;3.00;;;;;;;;5070542;28;8985;-82
2023/07/17 06:37:52;;;;;;;;;2.75;2.75;;;;;;;;5069297;28;8868;-83
2023/07/17 06:40:19;;;;;;;;;2.00;2.00;;;;;;;;5069644;28;8860;-85
2023/07/17 06:42:47;;;;;;;;;3.75;2.75;;;;;;;;5069010;28;8837;-87
2023/07/17 06:45:14;;;;;;;;;3.00;3.00;;;;;;;;5069358;28;8984;-87
2023/07/17 06:47:43;;;;;;;;;3.00;1.75;;;;;;;;5069452;28;8833;-87
2023/07/17 06:50:10;;;;;;;;;3.00;2.00;;;;;;;;5069529;28;8856;-75
2023/07/17 06:52:38;;;;;;;;;3.75;2.25;;;;;;;;5069015;28;9770;-85
2023/07/17 06:55:07;;;;;;;;;4.50;3.00;;;;;;;;5069516;28;8921;-90
2023/07/17 06:57:37;;;;;;;;;5.75;4.00;;;;;;;;5069815;28;8837;-75
2023/07/17 07:00:05;;;;;;;;;2.50;2.50;;;;;;;;5069400;28;8902;-85
2023/07/17 07:02:32;;;;;;;;;0.25;0.25;;;;;;;;5069370;28;8793;-88
2023/07/17 07:05:01;;;;;;;;;2.75;2.75;;;;;;;;5069046;28;8856;-87
2023/07/17 07:07:30;;;;;;;;;3.25;2.25;;;;;;;;5070170;28;8836;-80
2023/07/17 07:09:58;;;;;;;;;3.00;3.00;;;;;;;;5071115;28;8840;-85
2023/07/17 07:12:25;;;;;;;;;2.25;2.25;;;;;;;;5069873;28;8876;-82
2023/07/17 07:14:53;;;;;;;;;3.50;2.00;;;;;;;;5056133;28;8849;-81
2023/07/17 07:17:20;;;;;;;;;1.75;1.75;;;;;;;;5048956;28;8854;-86
2023/07/17 07:19:47;;;;;;;;;2.50;2.50;;;;;;;;5053011;28;8878;-87
2023/07/17 07:22:15;;;;;;;;;1.50;1.50;;;;;;;;5053501;28;8843;-85
2023/07/17 07:24:46;;;;;;;;;2.50;2.50;;;;;;;;5053970;28;8893;-82
2023/07/17 07:27:13;;;;;;;;;1.25;1.25;;;;;;;;5054653;28;8866;-83
2023/07/17 07:29:40;;;;;;;;;2.75;2.75;;;;;;;;5055014;28;8859;-83
2023/07/17 07:32:08;;;;;;;;;1.50;1.50;;;;;;;;5054831;28;8826;-80
2023/07/17 07:34:36;;;;;;;;;2.25;2.00;;;;;;;;5052920;28;8855;-85
2023/07/17 07:37:03;;;;;;;;;1.25;1.25;;;;;;;;5052427;28;8874;-76
2023/07/17 07:39:31;;;;;;;;;2.00;2.00;;;;;;;;5053114;28;8839;-81
2023/07/17 07:41:59;;;;;;;;;0.75;0.75;;;;;;;;5052117;28;8873;-83
2023/07/17 07:44:26;;;;;;;;;4.00;2.00;;;;;;;;5052422;28;8851;-85
2023/07/17 07:46:53;;;;;;;;;1.25;1.25;;;;;;;;5051743;28;8847;-85
2023/07/17 07:49:20;;;;;;;;;2.00;2.00;;;;;;;;5052701;28;8851;-84
2023/07/17 07:51:48;;;;;;;;;2.50;1.75;;;;;;;;5051887;28;8890;-78
2023/07/17 07:54:15;;;;;;;;;1.00;1.00;;;;;;;;5052639;28;8976;-86
2023/07/17 07:56:44;;;;;;;;;2.00;2.00;;;;;;;;5052473;28;8848;-71
2023/07/17 07:59:11;;;;;;;;;2.00;2.00;;;;;;;;5052603;28;8890;-85
2023/07/17 08:01:38;;;;;;;;;3.00;2.00;;;;;;;;5051890;28;8826;-84
2023/07/17 08:04:05;;;;;;;;;2.00;2.00;;;;;;;;5052253;28;8855;-89
2023/07/17 08:06:32;;;;;;;;;4.00;2.20;;;;;;;;5052406;28;8870;-83
2023/07/17 08:08:59;;;;;;;;;2.20;1.00;;;;;;;;5052305;28;8885;-81
2023/07/17 08:11:29;;;;;;;;;1.60;0.80;;;;;;;;5051936;28;8866;-78
2023/07/17 08:13:58;;;;;;;;;1.00;1.00;;;;;;;;5056698;28;8876;-81
2023/07/17 08:16:25;;;;;;;;;1.00;1.00;;;;;;;;5072263;28;8853;-84
2023/07/17 08:18:52;;;;;;;;;2.20;0.80;;;;;;;;5071598;28;8926;-78
2023/07/17 08:21:19;;;;;;;;;2.20;1.40;;;;;;;;5071727;28;8878;-76
2023/07/17 08:23:47;;;;;;;;;2.80;1.60;;;;;;;;5071951;28;8911;-90
2023/07/17 08:26:14;;;;;;;;;3.60;1.60;;;;;;;;5074282;28;8864;-87
2023/07/17 08:28:41;;;;;;;;;1.80;1.80;;;;;;;;5075500;28;8825;-87
2023/07/17 08:31:10;;;;;;;;;3.20;3.20;;;;;;;;5073628;28;8801;-81
2023/07/17 08:33:38;;;;;;;;;1.60;1.00;;;;;;;;5073104;28;8869;-86
2023/07/17 08:36:05;;;;;;;;;1.00;1.00;;;;;;;;5071751;28;8856;-78
2023/07/17 08:38:32;;;;;;;;;2.80;1.00;;;;;;;;5071860;28;8971;-89
2023/07/17 08:41:00;;;;;;;;;2.00;2.00;;;;;;;;5071473;28;8883;-87
2023/07/17 08:43:29;;;;;;;;;1.00;1.00;;;;;;;;5071879;28;8944;-88
2023/07/17 08:45:57;;;;;;;;;2.00;2.00;;;;;;;;5071576;28;8862;-89
2023/07/17 08:48:27;;;;;;;;;1.40;1.40;;;;;;;;5071943;28;8856;-89
2023/07/17 08:50:55;;;;;;;;;0.80;0.80;;;;;;;;5071994;28;9712;-89
2023/07/17 08:53:24;;;;;;;;;1.60;1.60;;;;;;;;5072016;28;8865;-88
2023/07/17 08:55:55;;;;;;;;;1.60;1.60;;;;;;;;5072615;28;8837;-89
2023/07/17 08:58:24;;;;;;;;;2.80;0.80;;;;;;;;5073553;28;8848;-87
2023/07/17 09:00:51;;;;;;;;;2.60;1.00;;;;;;;;5074574;28;8777;-90
2023/07/17 09:03:20;;;;;;;;;1.40;1.40;;;;;;;;5077702;28;8975;-89
2023/07/17 09:05:49;;;;;;;;;1.00;1.00;;;;;;;;5076662;28;8890;-88
2023/07/17 09:08:16;;;;;;;;;1.20;1.20;;;;;;;;5078795;28;8888;-86
2023/07/17 09:10:43;;;;;;;;;1.00;1.00;;;;;;;;5077221;28;8845;-80
2023/07/17 09:13:11;;;;;;;;;1.40;1.40;;;;;;;;5073243;28;8856;-79
2023/07/17 09:15:39;;;;;;;;;2.00;2.00;;;;;;;;5053438;28;8866;-88
2023/07/17 09:18:06;;;;;;;;;1.40;1.40;;;;;;;;5051033;28;8854;-82
2023/07/17 09:20:33;;;;;;;;;1.80;1.80;;;;;;;;5050595;28;8881;-86
2023/07/17 09:23:03;;;;;;;;;1.60;1.60;;;;;;;;5050746;28;8843;-87
2023/07/17 09:25:31;;;;;;;;;0.80;0.80;;;;;;;;5051229;28;8958;-88
2023/07/17 09:27:59;;;;;;;;;3.40;2.40;;;;;;;;5050807;28;8869;-81
2023/07/17 09:30:30;;;;;;;;;2.80;1.00;;;;;;;;5050138;28;8788;-85
2023/07/17 09:33:05;;;;;;;;;0.80;0.80;;;;;;;;5050816;28;8904;-84
2023/07/17 09:35:33;;;;;;;;;0.80;0.80;;;;;;;;5050973;28;8859;-84
2023/07/17 09:38:01;;;;;;;;;2.20;1.40;;;;;;;;5052495;28;8857;-81
2023/07/17 09:40:35;;;;;;;;;1.00;1.00;;;;;;;;5054945;28;8855;-84
2023/07/17 09:43:06;;;;;;;;;1.00;1.00;;;;;;;;5054702;28;9281;-82
2023/07/17 09:45:34;;;;;;;;;2.20;1.60;;;;;;;;5050311;28;9583;-82
2023/07/17 09:48:02;;;;;;;;;1.00;1.00;;;;;;;;5050371;28;8851;-83
2023/07/17 09:50:30;;;;;;;;;0.60;0.60;;;;;;;;5050700;28;8966;-76
2023/07/17 09:52:58;;;;;;;;;0.80;0.80;;;;;;;;5050508;28;9001;-85
2023/07/17 09:55:28;;;;;;;;;1.20;1.20;;;;;;;;5050425;28;8973;-86
2023/07/17 09:57:59;;;;;;;;;2.20;2.20;;;;;;;;5050786;28;8850;-80
2023/07/17 10:00:29;;;;;;;;;0.80;0.80;;;;;;;;5050456;28;8758;-83
2023/07/17 10:03:02;;;;;;;;;2.20;1.80;;;;;;;;5051273;28;8875;-81
2023/07/17 10:05:30;;;;;;;;;0.60;0.60;;;;;;;;5051247;28;8974;-78
2023/07/17 10:07:59;;;;;;;;;1.20;1.20;;;;;;;;5050961;28;8889;-79
2023/07/17 10:10:29;;;;;;;;;5.60;5.60;;;;;;;;5049981;28;8855;-83
2023/07/17 10:12:57;;;;;;;;;2.40;2.00;;;;;;;;5050001;28;8843;-83
2023/07/17 10:15:24;;;;;;;;;1.80;1.00;;;;;;;;5066705;28;8844;-86
2023/07/17 10:17:57;;;;;;;;;3.80;0.80;;;;;;;;5070941;28;8856;-84
2023/07/17 10:20:25;;;;;;;;;2.20;2.20;;;;;;;;5072675;28;8879;-77
2023/07/17 10:22:52;;;;;;;;;0.40;0.40;;;;;;;;5072993;28;8848;-90
2023/07/17 10:25:28;;;;;;;;;1.80;1.80;;;;;;;;5073558;28;8832;-93
2023/07/17 10:28:00;;;;;;;;;1.20;1.20;;;;;;;;5069891;28;8833;-90
2023/07/17 10:30:33;;;;;;;;;2.00;2.00;;;;;;;;5069962;28;8823;-89
2023/07/17 10:33:14;;;;;;;;;2.80;1.20;;;;;;;;5070505;28;9647;-85
2023/07/17 10:35:49;;;;;;;;;3.20;1.80;;;;;;;;5070700;28;8864;-85
2023/07/17 10:38:17;;;;;;;;;2.60;2.20;;;;;;;;5072443;28;9744;-84
2023/07/17 10:40:47;;;;;;;;;2.00;2.00;;;;;;;;5072118;28;8872;-85
2023/07/17 10:43:19;;;;;;;;;1.60;1.60;;;;;;;;5070921;28;8852;-87
2023/07/17 10:45:47;;;;;;;;;1.20;1.20;;;;;;;;5069535;28;8852;-81
2023/07/17 10:48:18;;;;;;;;;1.40;0.60;;;;;;;;5070027;28;8856;-82
2023/07/17 10:50:49;;;;;;;;;0.60;0.20;;;;;;;;5069583;28;8869;-81
2023/07/17 10:53:17;;;;;;;;;1.00;1.00;;;;;;;;5071834;28;8852;-84
2023/07/17 10:55:46;;;;;;;;;1.60;1.60;;;;;;;;5073595;28;8829;-80
2023/07/17 10:58:14;;;;;;;;;3.40;1.80;;;;;;;;5073562;28;8991;-82
2023/07/17 11:00:44;;;;;;;;;1.20;1.20;;;;;;;;5073327;28;8804;-84
2023/07/17 11:03:13;;;;;;;;;1.00;1.00;;;;;;;;5073767;28;8828;-79
2023/07/17 11:05:42;;;;;;;;;1.00;1.00;;;;;;;;5074235;28;8856;-78
2023/07/17 11:08:11;;;;;;;;;0.80;0.80;;;;;;;;5073983;28;8872;-80
2023/07/17 11:10:42;;;;;;;;;1.00;1.00;;;;;;;;5073523;28;8979;-79
2023/07/17 11:13:11;;;;;;;;;0.80;0.80;;;;;;;;5072873;28;9014;-78
2023/07/17 11:15:39;;;;;;;;;0.80;0.80;;;;;;;;5053564;28;8859;-74
2023/07/17 11:18:07;;;;;;;;;2.00;2.00;;;;;;;;5052332;28;8839;-76
2023/07/17 11:20:35;;;;;;;;;0.00;0.00;;;;;;;;5052457;28;9684;-82
2023/07/17 11:23:03;;;;;;;;;0.60;0.60;;;;;;;;5052476;28;9344;-77
2023/07/17 11:25:31;;;;;;;;;0.00;0.00;;;;;;;;5052243;28;8863;-83
2023/07/17 11:28:01;;;;;;;;;2.20;2.20;;;;;;;;5052458;28;8839;-78
2023/07/17 11:30:33;;;;;;;;;0.20;0.20;;;;;;;;5052348;28;8917;-77
2023/07/17 11:33:02;;;;;;;;;0.20;0.20;;;;;;;;5052463;28;8897;-78
2023/07/17 11:35:44;;;;;;;;;0.00;0.00;;;;;;;;5052502;28;8961;-79
2023/07/17 11:38:12;;;;;;;;;0.00;0.00;;;;;;;;5052855;28;9679;-78
2023/07/17 11:40:59;;;;;;;;;0.20;0.20;;;;;;;;5052243;28;8982;-75
2023/07/17 11:43:28;;;;;;;;;1.00;1.00;;;;;;;;5051800;28;8855;-71
2023/07/17 11:46:01;;;;;;;;;2.00;0.20;;;;;;;;5051721;28;8847;-73
2023/07/17 11:48:30;;;;;;;;;0.20;0.20;;;;;;;;5052231;28;8896;-79
2023/07/17 11:50:57;;;;;;;;;0.60;0.60;;;;;;;;5051724;28;8855;-78
2023/07/17 11:53:25;;;;;;;;;0.20;0.20;;;;;;;;5051732;28;8863;-78
2023/07/17 11:55:52;;;;;;;;;0.00;0.00;;;;;;;;5051872;28;8862;-78
2023/07/17 11:58:21;;;;;;;;;0.20;0.00;;;;;;;;5051924;28;8859;-80
2023/07/17 12:00:50;;;;;;;;;0.00;0.00;;;;;;;;5051664;28;8847;-79
2023/07/17 12:03:19;;;;;;;;;0.00;0.00;;;;;;;;5053831;28;8883;-80
2023/07/17 12:05:46;;;;;;;;;0.00;0.00;;;;;;;;5054507;28;8842;-76
2023/07/17 12:08:14;;;;;;;;;1.00;0.00;;;;;;;;5052356;28;8855;-81
2023/07/17 12:10:42;;;;;;;;;0.00;0.00;;;;;;;;5052491;28;8857;-81
2023/07/17 12:13:09;;;;;;;;;0.00;0.00;;;;;;;;5053881;28;8863;-80
2023/07/17 12:15:37;;;;;;;;;0.00;0.00;;;;;;;;5072522;28;8841;-80
2023/07/17 12:18:04;;;;;;;;;0.00;0.00;;;;;;;;5073114;28;8947;-79
2023/07/17 12:20:33;;;;;;;;;0.20;0.00;;;;;;;;5071805;28;9290;-77
2023/07/17 12:23:02;;;;;;;;;0.00;0.00;;;;;;;;5071419;28;8899;-79
2023/07/17 12:25:30;;;;;;;;;0.00;0.00;;;;;;;;5071537;28;8982;-77
2023/07/17 12:28:00;;;;;;;;;0.00;0.00;;;;;;;;5070974;28;8867;-77
2023/07/17 12:30:29;;;;;;;;;0.00;0.00;;;;;;;;5070519;28;8803;-73
2023/07/17 12:32:57;;;;;;;;;0.00;0.00;;;;;;;;5071064;28;8915;-79
2023/07/17 12:35:24;;;;;;;;;1.40;0.00;;;;;;;;5071012;28;8867;-75
2023/07/17 12:37:53;;;;;;;;;0.00;0.00;;;;;;;;5070474;28;8856;-80
2023/07/17 12:40:20;;;;;;;;;0.00;0.00;;;;;;;;5071155;28;8979;-71
2023/07/17 12:42:48;;;;;;;;;0.00;0.00;;;;;;;;5070236;28;8983;-79
2023/07/17 12:45:15;;;;;;;;;0.00;0.00;;;;;;;;5070794;28;8922;-72
2023/07/17 12:47:42;;;;;;;;;0.80;0.00;;;;;;;;5071092;28;8840;-72
2023/07/17 12:50:10;;;;;;;;;0.00;0.00;;;;;;;;5070967;28;8876;-76
2023/07/17 12:52:37;;;;;;;;;0.40;0.00;;;;;;;;5071074;28;8976;-74
2023/07/17 12:55:07;;;;;;;;;0.40;0.00;;;;;;;;5070472;28;8849;-73
2023/07/17 12:57:35;;;;;;;;;0.00;0.00;;;;;;;;5070775;28;8852;-77
2023/07/17 13:00:03;;;;;;;;;0.00;0.00;;;;;;;;5070409;28;9307;-79
2023/07/17 13:02:30;;;;;;;;;0.00;0.00;;;;;;;;5070281;28;8801;-75
2023/07/17 13:04:57;;;;;;;;;1.00;0.00;;;;;;;;5070002;28;8910;-75
2023/07/17 13:07:25;;;;;;;;;1.00;0.00;;;;;;;;5070423;28;8849;-80
2023/07/17 13:09:52;;;;;;;;;0.00;0.00;;;;;;;;5069831;28;8852;-78
2023/07/17 13:12:21;;;;;;;;;0.40;0.40;;;;;;;;5070524;28;9627;-76
2023/07/17 13:14:48;;;;;;;;;0.20;0.20;;;;;;;;5057215;28;8831;-76
2023/07/17 13:17:15;;;;;;;;;0.00;0.00;;;;;;;;5049364;28;8956;-78
2023/07/17 13:19:45;;;;;;;;;0.00;0.00;;;;;;;;5054389;28;8863;-75
2023/07/17 13:22:12;;;;;;;;;0.40;0.00;;;;;;;;5059024;28;8926;-80
2023/07/17 13:24:39;;;;;;;;;0.00;0.00;;;;;;;;5050423;28;8855;-78
2023/07/17 13:27:07;;;;;;;;;0.20;0.00;;;;;;;;5050256;28;8867;-81
2023/07/17 13:29:35;;;;;;;;;0.00;0.00;;;;;;;;5057538;28;8896;-82
2023/07/17 13:32:03;;;;;;;;;0.00;0.00;;;;;;;;5069550;28;8819;-84
2023/07/17 13:34:31;;;;;;;;;0.00;0.00;;;;;;;;5071630;28;8864;-84
2023/07/17 13:36:58;;;;;;;;;0.20;0.20;;;;;;;;5072317;28;8971;-82
2023/07/17 13:39:26;;;;;;;;;0.00;0.00;;;;;;;;5070340;28;8876;-84
2023/07/17 13:41:53;;;;;;;;;0.00;0.00;;;;;;;;5053372;28;8851;-84
2023/07/17 13:44:22;;;;;;;;;0.00;0.00;;;;;;;;5051951;28;8881;-81
2023/07/17 13:46:51;;;;;;;;;0.00;0.00;;;;;;;;5051646;28;8848;-84
2023/07/17 13:49:18;;;;;;;;;0.00;0.00;;;;;;;;5052500;28;8855;-88
2023/07/17 13:51:47;;;;;;;;;0.00;0.00;;;;;;;;5053543;28;8847;-89
2023/07/17 13:54:14;;;;;;;;;0.00;0.00;;;;;;;;5053006;28;8855;-90
2023/07/17 13:56:42;;;;;;;;;0.00;0.00;;;;;;;;5051313;28;8866;-83
2023/07/17 13:59:10;;;;;;;;;1.80;0.00;;;;;;;;5050988;28;8870;-77
2023/07/17 14:01:37;;;;;;;;;0.60;0.00;;;;;;;;5049379;28;8780;-78
2023/07/17 14:04:07;;;;;;;;;0.00;0.00;;;;;;;;5052461;28;8877;-84
2023/07/17 14:06:34;;;;;;;;;0.00;0.00;;;;;;;;5067290;28;8891;-90
2023/07/17 14:09:01;;;;;;;;;0.80;0.00;;;;;;;;5059132;28;8882;-85
2023/07/17 14:11:29;;;;;;;;;0.00;0.00;;;;;;;;5051128;28;8855;-82
2023/07/17 14:13:58;;;;;;;;;0.00;0.00;;;;;;;;5059980;28;8974;-88
2023/07/17 14:16:25;;;;;;;;;0.00;0.00;;;;;;;;5054898;28;8847;-82
2023/07/17 14:18:53;;;;;;;;;1.60;0.20;;;;;;;;5051865;28;8839;-82
2023/07/17 14:21:21;;;;;;;;;0.00;0.00;;;;;;;;5050146;28;8847;-87
2023/07/17 14:23:49;;;;;;;;;0.00;0.00;;;;;;;;5049892;28;8877;-81
2023/07/17 14:26:16;;;;;;;;;0.00;0.00;;;;;;;;5053500;28;8868;-84
2023/07/17 14:28:43;;;;;;;;;0.00;0.00;;;;;;;;5049397;28;8998;-78
2023/07/17 14:31:10;;;;;;;;;0.00;0.00;;;;;;;;5049549;28;8802;-84
2023/07/17 14:33:38;;;;;;;;;0.00;0.00;;;;;;;;5065860;28;8858;-87
2023/07/17 14:36:05;;;;;;;;;0.60;0.60;;;;;;;;5058161;28;8961;-79
2023/07/17 14:38:36;;;;;;;;;0.00;0.00;;;;;;;;5058958;28;8836;-81
2023/07/17 14:41:03;;;;;;;;;0.40;0.00;;;;;;;;5049176;28;8864;-79
2023/07/17 14:43:31;;;;;;;;;0.00;0.00;;;;;;;;5049695;28;8852;-80
2023/07/17 14:45:58;;;;;;;;;0.00;0.00;;;;;;;;5049759;28;8959;-73
2023/07/17 14:48:25;;;;;;;;;1.00;0.00;;;;;;;;5049979;28;8881;-77
2023/07/17 14:50:52;;;;;;;;;0.00;0.00;;;;;;;;5049669;28;8970;-81
2023/07/17 14:53:20;;;;;;;;;0.00;0.00;;;;;;;;5055877;28;8818;-73
2023/07/17 14:55:48;;;;;;;;;0.00;0.00;;;;;;;;5069298;28;9000;-74
2023/07/17 14:58:15;;;;;;;;;1.00;0.00;;;;;;;;5063284;28;8840;-79
2023/07/17 15:00:43;;;;;;;;;0.00;0.00;;;;;;;;5048527;28;9640;-72
2023/07/17 15:03:10;;;;;;;;;0.80;0.00;;;;;;;;5058126;28;8986;-84